Terminal Aerodrome Forecast
Issued by NWS

Home | Current Version | Previous Version | Text Only | Print | Product List | Glossary On
Versions: 1 2 3 4 5 6 7 8 9 10 11 12 13 14 15 16 17 18 19 20 21 22
000
FTPA31 PHFO 302300
TAFKOA
TAF
PHKO 302325Z 0100/0124 21014KT P6SM SCT025 BKN050
     FM010600 13008KT P6SM SCT025 BKN050
     FM011000 09005KT P6SM FEW025 SCT050
     FM012000 24012KT P6SM SCT025 SCT050=

USA.gov is the U.S. government's official web portal to all federal, state and local government web resources and services.